sensor_id;sensor_type;location;lat;lon;timestamp;P1;durP1;ratioP1;P2;durP2;ratioP2
31848;SDS011;18414;59.352;18.152;2023-07-13T00:01:13;3.88;;;3.33;;
31848;SDS011;18414;59.352;18.152;2023-07-13T00:03:38;5.47;;;3.97;;
31848;SDS011;18414;59.352;18.152;2023-07-13T00:06:06;5.30;;;3.83;;
31848;SDS011;18414;59.352;18.152;2023-07-13T00:08:32;3.80;;;3.40;;
31848;SDS011;18414;59.352;18.152;2023-07-13T00:11:00;3.78;;;3.47;;
31848;SDS011;18414;59.352;18.152;2023-07-13T00:13:27;4.57;;;3.47;;
31848;SDS011;18414;59.352;18.152;2023-07-13T00:15:52;4.47;;;3.72;;
31848;SDS011;18414;59.352;18.152;2023-07-13T00:18:19;5.10;;;4.03;;
31848;SDS011;18414;59.352;18.152;2023-07-13T00:20:44;4.28;;;3.75;;
31848;SDS011;18414;59.352;18.152;2023-07-13T00:23:10;5.70;;;4.22;;
31848;SDS011;18414;59.352;18.152;2023-07-13T00:25:35;4.22;;;3.83;;
31848;SDS011;18414;59.352;18.152;2023-07-13T00:28:00;6.25;;;3.90;;
31848;SDS011;18414;59.352;18.152;2023-07-13T00:30:26;5.22;;;4.00;;
31848;SDS011;18414;59.352;18.152;2023-07-13T00:32:51;3.70;;;3.40;;
31848;SDS011;18414;59.352;18.152;2023-07-13T00:35:16;4.25;;;3.83;;
31848;SDS011;18414;59.352;18.152;2023-07-13T00:37:42;4.15;;;3.58;;
31848;SDS011;18414;59.352;18.152;2023-07-13T00:40:09;4.03;;;3.60;;
31848;SDS011;18414;59.352;18.152;2023-07-13T00:42:39;4.20;;;3.80;;
31848;SDS011;18414;59.352;18.152;2023-07-13T00:47:36;4.28;;;3.55;;
31848;SDS011;18414;59.352;18.152;2023-07-13T00:50:01;4.57;;;3.95;;
31848;SDS011;18414;59.352;18.152;2023-07-13T00:52:27;4.85;;;3.70;;
31848;SDS011;18414;59.352;18.152;2023-07-13T00:54:53;4.45;;;3.80;;
31848;SDS011;18414;59.352;18.152;2023-07-13T00:57:19;4.03;;;3.63;;
31848;SDS011;18414;59.352;18.152;2023-07-13T00:59:46;4.85;;;4.32;;
31848;SDS011;18414;59.352;18.152;2023-07-13T01:02:14;4.25;;;3.50;;
31848;SDS011;18414;59.352;18.152;2023-07-13T01:04:39;4.75;;;3.90;;
31848;SDS011;18414;59.352;18.152;2023-07-13T01:07:06;6.85;;;3.75;;
31848;SDS011;18414;59.352;18.152;2023-07-13T01:09:31;5.05;;;3.95;;
31848;SDS011;18414;59.352;18.152;2023-07-13T01:11:57;4.65;;;3.80;;
31848;SDS011;18414;59.352;18.152;2023-07-13T01:14:22;4.70;;;4.30;;
31848;SDS011;18414;59.352;18.152;2023-07-13T01:16:47;4.10;;;3.60;;
31848;SDS011;18414;59.352;18.152;2023-07-13T01:22:10;8.15;;;4.10;;
31848;SDS011;18414;59.352;18.152;2023-07-13T01:24:44;3.97;;;3.33;;
31848;SDS011;18414;59.352;18.152;2023-07-13T01:27:14;4.82;;;3.80;;
31848;SDS011;18414;59.352;18.152;2023-07-13T01:29:42;4.78;;;3.72;;
31848;SDS011;18414;59.352;18.152;2023-07-13T01:32:09;4.57;;;3.60;;
31848;SDS011;18414;59.352;18.152;2023-07-13T01:34:36;7.40;;;3.67;;
31848;SDS011;18414;59.352;18.152;2023-07-13T01:37:02;5.00;;;3.55;;
31848;SDS011;18414;59.352;18.152;2023-07-13T01:39:29;3.95;;;3.38;;
31848;SDS011;18414;59.352;18.152;2023-07-13T01:41:54;5.85;;;3.70;;
31848;SDS011;18414;59.352;18.152;2023-07-13T01:44:19;3.92;;;3.58;;
31848;SDS011;18414;59.352;18.152;2023-07-13T01:46:45;3.70;;;3.33;;
31848;SDS011;18414;59.352;18.152;2023-07-13T01:49:11;5.38;;;3.45;;
31848;SDS011;18414;59.352;18.152;2023-07-13T01:51:36;5.45;;;3.72;;
31848;SDS011;18414;59.352;18.152;2023-07-13T01:54:01;4.70;;;3.58;;
31848;SDS011;18414;59.352;18.152;2023-07-13T01:56:26;6.63;;;3.42;;
31848;SDS011;18414;59.352;18.152;2023-07-13T01:58:52;4.40;;;3.28;;
31848;SDS011;18414;59.352;18.152;2023-07-13T02:01:17;5.78;;;3.88;;
31848;SDS011;18414;59.352;18.152;2023-07-13T02:03:43;4.05;;;3.50;;
31848;SDS011;18414;59.352;18.152;2023-07-13T02:06:08;4.13;;;3.72;;
31848;SDS011;18414;59.352;18.152;2023-07-13T02:08:33;6.03;;;3.53;;
31848;SDS011;18414;59.352;18.152;2023-07-13T02:10:59;2.80;;;2.50;;
31848;SDS011;18414;59.352;18.152;2023-07-13T02:13:25;5.82;;;3.10;;
31848;SDS011;18414;59.352;18.152;2023-07-13T02:15:50;3.45;;;2.28;;
31848;SDS011;18414;59.352;18.152;2023-07-13T02:18:16;3.50;;;3.00;;
31848;SDS011;18414;59.352;18.152;2023-07-13T02:20:42;4.03;;;3.08;;
31848;SDS011;18414;59.352;18.152;2023-07-13T02:23:07;3.72;;;2.95;;
31848;SDS011;18414;59.352;18.152;2023-07-13T02:25:33;3.88;;;2.53;;
31848;SDS011;18414;59.352;18.152;2023-07-13T02:27:58;2.28;;;2.08;;
31848;SDS011;18414;59.352;18.152;2023-07-13T02:30:23;3.17;;;2.70;;
31848;SDS011;18414;59.352;18.152;2023-07-13T02:32:49;4.10;;;2.88;;
31848;SDS011;18414;59.352;18.152;2023-07-13T02:35:15;4.47;;;2.00;;
31848;SDS011;18414;59.352;18.152;2023-07-13T02:37:41;3.92;;;2.90;;
31848;SDS011;18414;59.352;18.152;2023-07-13T02:40:06;3.50;;;2.65;;
31848;SDS011;18414;59.352;18.152;2023-07-13T02:42:33;2.80;;;2.50;;
31848;SDS011;18414;59.352;18.152;2023-07-13T02:44:59;2.40;;;1.98;;
31848;SDS011;18414;59.352;18.152;2023-07-13T02:47:24;4.20;;;2.67;;
31848;SDS011;18414;59.352;18.152;2023-07-13T02:49:50;4.07;;;2.47;;
31848;SDS011;18414;59.352;18.152;2023-07-13T02:52:15;2.83;;;2.00;;
31848;SDS011;18414;59.352;18.152;2023-07-13T02:54:40;3.58;;;2.38;;
31848;SDS011;18414;59.352;18.152;2023-07-13T02:57:06;2.70;;;2.30;;
31848;SDS011;18414;59.352;18.152;2023-07-13T02:59:31;2.60;;;1.70;;
31848;SDS011;18414;59.352;18.152;2023-07-13T03:01:57;2.50;;;2.17;;
31848;SDS011;18414;59.352;18.152;2023-07-13T03:04:22;3.03;;;2.50;;
31848;SDS011;18414;59.352;18.152;2023-07-13T03:06:47;4.65;;;2.78;;
31848;SDS011;18414;59.352;18.152;2023-07-13T03:09:13;3.42;;;2.40;;
31848;SDS011;18414;59.352;18.152;2023-07-13T03:11:38;2.60;;;2.08;;
31848;SDS011;18414;59.352;18.152;2023-07-13T03:14:04;3.03;;;2.03;;
31848;SDS011;18414;59.352;18.152;2023-07-13T03:16:29;3.45;;;2.60;;
31848;SDS011;18414;59.352;18.152;2023-07-13T03:18:54;3.65;;;2.88;;
31848;SDS011;18414;59.352;18.152;2023-07-13T03:21:20;7.30;;;2.88;;
31848;SDS011;18414;59.352;18.152;2023-07-13T03:23:46;2.17;;;1.92;;
31848;SDS011;18414;59.352;18.152;2023-07-13T03:26:13;4.18;;;2.97;;
31848;SDS011;18414;59.352;18.152;2023-07-13T03:28:41;3.70;;;2.90;;
31848;SDS011;18414;59.352;18.152;2023-07-13T03:31:08;5.53;;;2.70;;
31848;SDS011;18414;59.352;18.152;2023-07-13T03:33:36;4.55;;;2.92;;
31848;SDS011;18414;59.352;18.152;2023-07-13T03:36:02;4.15;;;2.75;;
31848;SDS011;18414;59.352;18.152;2023-07-13T03:38:28;2.72;;;2.30;;
31848;SDS011;18414;59.352;18.152;2023-07-13T03:40:53;3.05;;;2.42;;
31848;SDS011;18414;59.352;18.152;2023-07-13T03:43:19;4.05;;;3.17;;
31848;SDS011;18414;59.352;18.152;2023-07-13T03:45:45;4.85;;;2.72;;
31848;SDS011;18414;59.352;18.152;2023-07-13T03:48:11;4.07;;;3.00;;
31848;SDS011;18414;59.352;18.152;2023-07-13T03:50:36;3.60;;;2.83;;
31848;SDS011;18414;59.352;18.152;2023-07-13T03:53:02;3.55;;;2.78;;
31848;SDS011;18414;59.352;18.152;2023-07-13T03:55:27;4.43;;;3.15;;
31848;SDS011;18414;59.352;18.152;2023-07-13T03:57:54;3.35;;;2.58;;
31848;SDS011;18414;59.352;18.152;2023-07-13T04:00:23;2.63;;;2.15;;
31848;SDS011;18414;59.352;18.152;2023-07-13T04:02:49;2.78;;;2.47;;
31848;SDS011;18414;59.352;18.152;2023-07-13T04:05:15;3.05;;;2.75;;
31848;SDS011;18414;59.352;18.152;2023-07-13T04:07:40;5.35;;;3.10;;
31848;SDS011;18414;59.352;18.152;2023-07-13T04:10:06;2.90;;;2.60;;
31848;SDS011;18414;59.352;18.152;2023-07-13T04:12:31;3.63;;;3.00;;
31848;SDS011;18414;59.352;18.152;2023-07-13T04:14:57;3.70;;;2.30;;
31848;SDS011;18414;59.352;18.152;2023-07-13T04:17:22;3.78;;;3.08;;
31848;SDS011;18414;59.352;18.152;2023-07-13T04:19:47;4.10;;;2.63;;
31848;SDS011;18414;59.352;18.152;2023-07-13T04:22:14;4.95;;;2.50;;
31848;SDS011;18414;59.352;18.152;2023-07-13T04:24:39;4.05;;;2.90;;
31848;SDS011;18414;59.352;18.152;2023-07-13T04:27:04;3.25;;;2.38;;
31848;SDS011;18414;59.352;18.152;2023-07-13T04:29:30;4.13;;;2.55;;
31848;SDS011;18414;59.352;18.152;2023-07-13T04:31:55;5.03;;;2.35;;
31848;SDS011;18414;59.352;18.152;2023-07-13T04:34:21;5.53;;;2.72;;
31848;SDS011;18414;59.352;18.152;2023-07-13T04:36:46;4.38;;;2.05;;
31848;SDS011;18414;59.352;18.152;2023-07-13T04:39:11;2.78;;;1.98;;
31848;SDS011;18414;59.352;18.152;2023-07-13T04:41:37;3.40;;;1.83;;
31848;SDS011;18414;59.352;18.152;2023-07-13T04:44:02;2.53;;;2.30;;
31848;SDS011;18414;59.352;18.152;2023-07-13T04:46:28;5.53;;;2.63;;
31848;SDS011;18414;59.352;18.152;2023-07-13T04:48:53;4.88;;;2.30;;
31848;SDS011;18414;59.352;18.152;2023-07-13T04:51:19;4.70;;;2.33;;
31848;SDS011;18414;59.352;18.152;2023-07-13T04:53:44;2.80;;;1.95;;
31848;SDS011;18414;59.352;18.152;2023-07-13T04:56:10;3.65;;;1.90;;
31848;SDS011;18414;59.352;18.152;2023-07-13T04:58:35;4.18;;;2.00;;
31848;SDS011;18414;59.352;18.152;2023-07-13T05:01:01;5.60;;;2.38;;
31848;SDS011;18414;59.352;18.152;2023-07-13T05:03:29;4.05;;;2.38;;
31848;SDS011;18414;59.352;18.152;2023-07-13T05:05:56;3.63;;;2.30;;
31848;SDS011;18414;59.352;18.152;2023-07-13T05:08:25;4.28;;;2.20;;
31848;SDS011;18414;59.352;18.152;2023-07-13T05:10:51;2.97;;;2.25;;
31848;SDS011;18414;59.352;18.152;2023-07-13T05:13:17;4.90;;;1.83;;
31848;SDS011;18414;59.352;18.152;2023-07-13T05:15:42;5.05;;;1.90;;
31848;SDS011;18414;59.352;18.152;2023-07-13T05:18:07;4.75;;;2.35;;
31848;SDS011;18414;59.352;18.152;2023-07-13T05:20:33;6.05;;;2.50;;
31848;SDS011;18414;59.352;18.152;2023-07-13T05:22:58;2.00;;;1.80;;
31848;SDS011;18414;59.352;18.152;2023-07-13T05:25:23;5.82;;;1.90;;
31848;SDS011;18414;59.352;18.152;2023-07-13T05:27:49;5.15;;;2.17;;
31848;SDS011;18414;59.352;18.152;2023-07-13T05:30:14;4.57;;;1.83;;
31848;SDS011;18414;59.352;18.152;2023-07-13T05:32:40;5.30;;;2.30;;
31848;SDS011;18414;59.352;18.152;2023-07-13T05:35:06;4.38;;;1.80;;
31848;SDS011;18414;59.352;18.152;2023-07-13T05:37:31;3.10;;;2.17;;
31848;SDS011;18414;59.352;18.152;2023-07-13T05:39:57;6.30;;;2.28;;
31848;SDS011;18414;59.352;18.152;2023-07-13T05:42:22;6.80;;;2.25;;
31848;SDS011;18414;59.352;18.152;2023-07-13T05:44:47;2.83;;;1.92;;
31848;SDS011;18414;59.352;18.152;2023-07-13T05:47:13;3.38;;;2.13;;
31848;SDS011;18414;59.352;18.152;2023-07-13T05:49:39;2.05;;;1.60;;
31848;SDS011;18414;59.352;18.152;2023-07-13T05:52:05;2.88;;;1.85;;
31848;SDS011;18414;59.352;18.152;2023-07-13T05:54:30;3.22;;;1.60;;
31848;SDS011;18414;59.352;18.152;2023-07-13T05:56:56;2.00;;;1.52;;
31848;SDS011;18414;59.352;18.152;2023-07-13T05:59:21;5.28;;;2.10;;
31848;SDS011;18414;59.352;18.152;2023-07-13T06:01:47;3.17;;;1.67;;
31848;SDS011;18414;59.352;18.152;2023-07-13T06:04:12;3.00;;;1.95;;
31848;SDS011;18414;59.352;18.152;2023-07-13T06:06:37;4.60;;;2.00;;
31848;SDS011;18414;59.352;18.152;2023-07-13T06:09:02;2.50;;;1.60;;
31848;SDS011;18414;59.352;18.152;2023-07-13T06:11:28;2.15;;;1.63;;
31848;SDS011;18414;59.352;18.152;2023-07-13T06:13:55;5.80;;;1.90;;
31848;SDS011;18414;59.352;18.152;2023-07-13T06:16:21;2.47;;;1.40;;
31848;SDS011;18414;59.352;18.152;2023-07-13T06:18:46;3.03;;;1.65;;
31848;SDS011;18414;59.352;18.152;2023-07-13T06:21:15;2.35;;;1.70;;
31848;SDS011;18414;59.352;18.152;2023-07-13T06:23:42;6.15;;;1.80;;
31848;SDS011;18414;59.352;18.152;2023-07-13T06:26:09;3.80;;;1.80;;
31848;SDS011;18414;59.352;18.152;2023-07-13T06:28:35;3.38;;;1.40;;
31848;SDS011;18414;59.352;18.152;2023-07-13T06:31:01;3.47;;;1.88;;
31848;SDS011;18414;59.352;18.152;2023-07-13T06:33:26;2.63;;;1.80;;
31848;SDS011;18414;59.352;18.152;2023-07-13T06:35:52;4.13;;;2.30;;
31848;SDS011;18414;59.352;18.152;2023-07-13T06:38:19;3.35;;;2.00;;
31848;SDS011;18414;59.352;18.152;2023-07-13T06:40:45;1.60;;;1.35;;
31848;SDS011;18414;59.352;18.152;2023-07-13T06:43:10;2.33;;;1.40;;
31848;SDS011;18414;59.352;18.152;2023-07-13T06:45:40;3.63;;;1.45;;
31848;SDS011;18414;59.352;18.152;2023-07-13T06:48:07;3.33;;;1.60;;
31848;SDS011;18414;59.352;18.152;2023-07-13T06:50:32;4.22;;;1.75;;
31848;SDS011;18414;59.352;18.152;2023-07-13T06:52:58;1.98;;;1.20;;
31848;SDS011;18414;59.352;18.152;2023-07-13T06:55:24;2.70;;;1.60;;
31848;SDS011;18414;59.352;18.152;2023-07-13T06:57:50;2.17;;;1.20;;
31848;SDS011;18414;59.352;18.152;2023-07-13T07:00:15;3.58;;;1.63;;
31848;SDS011;18414;59.352;18.152;2023-07-13T07:02:41;3.30;;;1.83;;
31848;SDS011;18414;59.352;18.152;2023-07-13T07:05:06;3.05;;;1.10;;
31848;SDS011;18414;59.352;18.152;2023-07-13T07:07:31;2.70;;;1.40;;
31848;SDS011;18414;59.352;18.152;2023-07-13T07:09:57;6.88;;;1.80;;
31848;SDS011;18414;59.352;18.152;2023-07-13T07:12:22;3.00;;;1.75;;
31848;SDS011;18414;59.352;18.152;2023-07-13T07:14:47;3.60;;;1.67;;
31848;SDS011;18414;59.352;18.152;2023-07-13T07:17:13;2.53;;;1.08;;
31848;SDS011;18414;59.352;18.152;2023-07-13T07:19:38;2.05;;;1.20;;
31848;SDS011;18414;59.352;18.152;2023-07-13T07:22:03;3.17;;;1.35;;
31848;SDS011;18414;59.352;18.152;2023-07-13T07:24:29;4.72;;;1.70;;
31848;SDS011;18414;59.352;18.152;2023-07-13T07:26:54;3.33;;;1.27;;
31848;SDS011;18414;59.352;18.152;2023-07-13T07:29:19;5.40;;;1.45;;
31848;SDS011;18414;59.352;18.152;2023-07-13T07:31:45;6.93;;;1.70;;
31848;SDS011;18414;59.352;18.152;2023-07-13T07:34:10;2.67;;;1.35;;
31848;SDS011;18414;59.352;18.152;2023-07-13T07:36:36;2.80;;;1.50;;
31848;SDS011;18414;59.352;18.152;2023-07-13T07:39:01;3.03;;;1.40;;
31848;SDS011;18414;59.352;18.152;2023-07-13T07:41:26;2.47;;;1.30;;
31848;SDS011;18414;59.352;18.152;2023-07-13T07:43:52;5.03;;;1.60;;
31848;SDS011;18414;59.352;18.152;2023-07-13T07:46:17;4.22;;;1.63;;
31848;SDS011;18414;59.352;18.152;2023-07-13T07:48:42;3.00;;;1.35;;
31848;SDS011;18414;59.352;18.152;2023-07-13T07:51:08;3.00;;;1.38;;
31848;SDS011;18414;59.352;18.152;2023-07-13T07:53:33;6.90;;;1.45;;
31848;SDS011;18414;59.352;18.152;2023-07-13T07:55:58;3.45;;;1.90;;
31848;SDS011;18414;59.352;18.152;2023-07-13T07:58:24;5.53;;;1.60;;
31848;SDS011;18414;59.352;18.152;2023-07-13T08:00:49;1.70;;;1.10;;
31848;SDS011;18414;59.352;18.152;2023-07-13T08:03:14;3.30;;;1.60;;
31848;SDS011;18414;59.352;18.152;2023-07-13T08:05:40;2.15;;;1.48;;
31848;SDS011;18414;59.352;18.152;2023-07-13T08:08:05;3.08;;;1.48;;
31848;SDS011;18414;59.352;18.152;2023-07-13T08:10:31;6.05;;;1.67;;
31848;SDS011;18414;59.352;18.152;2023-07-13T08:12:56;2.58;;;1.10;;
31848;SDS011;18414;59.352;18.152;2023-07-13T08:15:21;1.63;;;1.35;;
31848;SDS011;18414;59.352;18.152;2023-07-13T08:17:48;2.25;;;1.40;;
31848;SDS011;18414;59.352;18.152;2023-07-13T08:20:14;2.95;;;1.40;;
31848;SDS011;18414;59.352;18.152;2023-07-13T08:22:39;3.13;;;1.50;;
31848;SDS011;18414;59.352;18.152;2023-07-13T08:25:05;2.60;;;1.30;;
31848;SDS011;18414;59.352;18.152;2023-07-13T08:27:30;2.72;;;1.25;;
31848;SDS011;18414;59.352;18.152;2023-07-13T08:29:56;4.50;;;1.60;;
31848;SDS011;18414;59.352;18.152;2023-07-13T08:32:22;4.68;;;1.92;;
31848;SDS011;18414;59.352;18.152;2023-07-13T08:34:47;3.25;;;1.50;;
31848;SDS011;18414;59.352;18.152;2023-07-13T08:37:14;2.55;;;1.10;;
31848;SDS011;18414;59.352;18.152;2023-07-13T08:39:39;1.67;;;1.15;;
31848;SDS011;18414;59.352;18.152;2023-07-13T08:42:07;2.45;;;1.15;;
31848;SDS011;18414;59.352;18.152;2023-07-13T08:44:50;2.92;;;1.38;;
31848;SDS011;18414;59.352;18.152;2023-07-13T08:47:24;5.50;;;1.52;;
31848;SDS011;18414;59.352;18.152;2023-07-13T08:49:49;3.17;;;1.50;;
31848;SDS011;18414;59.352;18.152;2023-07-13T08:52:38;1.92;;;1.10;;
31848;SDS011;18414;59.352;18.152;2023-07-13T08:55:15;2.40;;;1.40;;
31848;SDS011;18414;59.352;18.152;2023-07-13T08:57:43;1.95;;;1.30;;
31848;SDS011;18414;59.352;18.152;2023-07-13T09:00:11;3.67;;;1.10;;
31848;SDS011;18414;59.352;18.152;2023-07-13T09:02:50;3.95;;;1.65;;
31848;SDS011;18414;59.352;18.152;2023-07-13T09:05:22;3.17;;;1.15;;
31848;SDS011;18414;59.352;18.152;2023-07-13T09:10:24;1.10;;;1.00;;
31848;SDS011;18414;59.352;18.152;2023-07-13T09:15:38;2.28;;;1.10;;
31848;SDS011;18414;59.352;18.152;2023-07-13T09:18:08;2.80;;;1.00;;
31848;SDS011;18414;59.352;18.152;2023-07-13T09:20:44;3.60;;;1.20;;
31848;SDS011;18414;59.352;18.152;2023-07-13T09:23:16;2.83;;;1.30;;
31848;SDS011;18414;59.352;18.152;2023-07-13T09:25:48;2.10;;;1.20;;
31848;SDS011;18414;59.352;18.152;2023-07-13T09:28:21;3.28;;;1.23;;
31848;SDS011;18414;59.352;18.152;2023-07-13T09:31:11;1.33;;;0.95;;
31848;SDS011;18414;59.352;18.152;2023-07-13T09:33:39;1.75;;;1.30;;
31848;SDS011;18414;59.352;18.152;2023-07-13T09:36:16;3.35;;;1.30;;
31848;SDS011;18414;59.352;18.152;2023-07-13T09:38:46;3.35;;;1.58;;
31848;SDS011;18414;59.352;18.152;2023-07-13T09:46:34;3.45;;;1.40;;
31848;SDS011;18414;59.352;18.152;2023-07-13T09:49:00;2.65;;;1.42;;
31848;SDS011;18414;59.352;18.152;2023-07-13T09:51:25;2.05;;;1.25;;
31848;SDS011;18414;59.352;18.152;2023-07-13T09:53:51;2.00;;;1.48;;
31848;SDS011;18414;59.352;18.152;2023-07-13T09:56:20;2.75;;;1.00;;
31848;SDS011;18414;59.352;18.152;2023-07-13T09:58:45;2.88;;;1.30;;
31848;SDS011;18414;59.352;18.152;2023-07-13T10:01:10;2.92;;;1.10;;
31848;SDS011;18414;59.352;18.152;2023-07-13T10:03:36;2.63;;;1.30;;
31848;SDS011;18414;59.352;18.152;2023-07-13T10:06:13;3.22;;;1.30;;
31848;SDS011;18414;59.352;18.152;2023-07-13T10:08:44;2.58;;;1.30;;
31848;SDS011;18414;59.352;18.152;2023-07-13T10:11:11;3.50;;;1.27;;
31848;SDS011;18414;59.352;18.152;2023-07-13T10:13:43;4.93;;;1.42;;
31848;SDS011;18414;59.352;18.152;2023-07-13T10:16:20;3.13;;;1.40;;
31848;SDS011;18414;59.352;18.152;2023-07-13T10:18:48;4.13;;;1.30;;
31848;SDS011;18414;59.352;18.152;2023-07-13T10:21:18;3.08;;;1.50;;
31848;SDS011;18414;59.352;18.152;2023-07-13T10:23:50;5.13;;;1.20;;
31848;SDS011;18414;59.352;18.152;2023-07-13T10:26:21;4.85;;;2.13;;
31848;SDS011;18414;59.352;18.152;2023-07-13T10:28:51;3.75;;;1.48;;
31848;SDS011;18414;59.352;18.152;2023-07-13T10:31:18;2.33;;;0.98;;
31848;SDS011;18414;59.352;18.152;2023-07-13T10:33:44;1.85;;;1.15;;
31848;SDS011;18414;59.352;18.152;2023-07-13T10:36:14;1.70;;;1.20;;
31848;SDS011;18414;59.352;18.152;2023-07-13T10:38:43;1.50;;;1.17;;
31848;SDS011;18414;59.352;18.152;2023-07-13T10:41:14;2.63;;;1.27;;
31848;SDS011;18414;59.352;18.152;2023-07-13T10:43:42;2.08;;;1.30;;
31848;SDS011;18414;59.352;18.152;2023-07-13T10:46:10;4.70;;;1.40;;
31848;SDS011;18414;59.352;18.152;2023-07-13T10:48:37;1.80;;;1.30;;
31848;SDS011;18414;59.352;18.152;2023-07-13T10:51:04;3.60;;;1.48;;
31848;SDS011;18414;59.352;18.152;2023-07-13T10:53:32;3.83;;;1.30;;
31848;SDS011;18414;59.352;18.152;2023-07-13T10:58:37;1.05;;;0.90;;
31848;SDS011;18414;59.352;18.152;2023-07-13T11:03:32;1.45;;;1.20;;
31848;SDS011;18414;59.352;18.152;2023-07-13T11:18:45;1.77;;;1.25;;
31848;SDS011;18414;59.352;18.152;2023-07-13T11:21:26;1.77;;;1.10;;
31848;SDS011;18414;59.352;18.152;2023-07-13T11:23:54;2.67;;;1.00;;
31848;SDS011;18414;59.352;18.152;2023-07-13T11:26:43;1.30;;;1.00;;
31848;SDS011;18414;59.352;18.152;2023-07-13T11:32:00;1.55;;;1.10;;
31848;SDS011;18414;59.352;18.152;2023-07-13T11:34:27;1.77;;;0.98;;
31848;SDS011;18414;59.352;18.152;2023-07-13T11:36:55;2.13;;;1.00;;
31848;SDS011;18414;59.352;18.152;2023-07-13T11:39:32;3.47;;;1.00;;
31848;SDS011;18414;59.352;18.152;2023-07-13T11:42:00;2.22;;;1.10;;
31848;SDS011;18414;59.352;18.152;2023-07-13T11:44:27;2.30;;;1.10;;
31848;SDS011;18414;59.352;18.152;2023-07-13T11:46:55;2.22;;;1.15;;
31848;SDS011;18414;59.352;18.152;2023-07-13T11:49:23;2.30;;;1.10;;
31848;SDS011;18414;59.352;18.152;2023-07-13T11:51:49;3.92;;;1.13;;
31848;SDS011;18414;59.352;18.152;2023-07-13T11:54:32;2.15;;;1.10;;
31848;SDS011;18414;59.352;18.152;2023-07-13T11:57:21;2.45;;;1.00;;
31848;SDS011;18414;59.352;18.152;2023-07-13T11:59:48;3.38;;;1.20;;
31848;SDS011;18414;59.352;18.152;2023-07-13T12:02:16;2.35;;;1.00;;
31848;SDS011;18414;59.352;18.152;2023-07-13T12:04:49;2.47;;;1.30;;
31848;SDS011;18414;59.352;18.152;2023-07-13T12:07:17;7.15;;;1.33;;
31848;SDS011;18414;59.352;18.152;2023-07-13T12:09:43;2.05;;;1.17;;
31848;SDS011;18414;59.352;18.152;2023-07-13T12:12:13;3.55;;;1.05;;
31848;SDS011;18414;59.352;18.152;2023-07-13T12:14:41;1.90;;;0.98;;
31848;SDS011;18414;59.352;18.152;2023-07-13T12:17:15;2.40;;;1.20;;
31848;SDS011;18414;59.352;18.152;2023-07-13T12:19:43;2.30;;;1.00;;
31848;SDS011;18414;59.352;18.152;2023-07-13T12:22:09;2.67;;;1.30;;
31848;SDS011;18414;59.352;18.152;2023-07-13T12:24:37;2.70;;;0.90;;
31848;SDS011;18414;59.352;18.152;2023-07-13T12:27:04;3.17;;;1.10;;
31848;SDS011;18414;59.352;18.152;2023-07-13T12:29:31;3.25;;;1.20;;
31848;SDS011;18414;59.352;18.152;2023-07-13T12:31:57;2.17;;;1.00;;
31848;SDS011;18414;59.352;18.152;2023-07-13T12:34:24;1.83;;;1.05;;
31848;SDS011;18414;59.352;18.152;2023-07-13T12:39:25;1.90;;;1.10;;
31848;SDS011;18414;59.352;18.152;2023-07-13T12:42:00;1.75;;;1.13;;
31848;SDS011;18414;59.352;18.152;2023-07-13T12:44:40;3.72;;;1.10;;
31848;SDS011;18414;59.352;18.152;2023-07-13T12:47:09;4.30;;;1.30;;
31848;SDS011;18414;59.352;18.152;2023-07-13T12:49:39;5.75;;;1.30;;
31848;SDS011;18414;59.352;18.152;2023-07-13T12:52:14;1.30;;;1.20;;
31848;SDS011;18414;59.352;18.152;2023-07-13T12:54:41;2.03;;;1.02;;
31848;SDS011;18414;59.352;18.152;2023-07-13T12:57:08;3.08;;;1.25;;
31848;SDS011;18414;59.352;18.152;2023-07-13T12:59:40;3.42;;;1.42;;
31848;SDS011;18414;59.352;18.152;2023-07-13T13:04:54;5.03;;;1.30;;
31848;SDS011;18414;59.352;18.152;2023-07-13T13:07:21;3.13;;;1.30;;
31848;SDS011;18414;59.352;18.152;2023-07-13T13:09:46;3.42;;;1.15;;
31848;SDS011;18414;59.352;18.152;2023-07-13T13:12:12;2.28;;;1.20;;
31848;SDS011;18414;59.352;18.152;2023-07-13T13:14:37;2.47;;;1.10;;
31848;SDS011;18414;59.352;18.152;2023-07-13T13:17:04;2.05;;;1.00;;
31848;SDS011;18414;59.352;18.152;2023-07-13T13:19:46;3.63;;;1.20;;
31848;SDS011;18414;59.352;18.152;2023-07-13T13:22:12;1.65;;;1.08;;
31848;SDS011;18414;59.352;18.152;2023-07-13T13:24:38;2.20;;;1.00;;
31848;SDS011;18414;59.352;18.152;2023-07-13T13:27:04;2.47;;;1.17;;
31848;SDS011;18414;59.352;18.152;2023-07-13T13:29:34;3.75;;;1.20;;
31848;SDS011;18414;59.352;18.152;2023-07-13T13:32:02;1.52;;;0.88;;
31848;SDS011;18414;59.352;18.152;2023-07-13T13:34:30;5.80;;;1.35;;
31848;SDS011;18414;59.352;18.152;2023-07-13T13:36:55;3.58;;;1.15;;
31848;SDS011;18414;59.352;18.152;2023-07-13T13:39:22;3.00;;;1.00;;
31848;SDS011;18414;59.352;18.152;2023-07-13T13:41:50;2.78;;;1.30;;
31848;SDS011;18414;59.352;18.152;2023-07-13T13:44:18;3.38;;;1.30;;
31848;SDS011;18414;59.352;18.152;2023-07-13T13:46:50;3.95;;;1.20;;
31848;SDS011;18414;59.352;18.152;2023-07-13T13:49:24;1.58;;;0.90;;
31848;SDS011;18414;59.352;18.152;2023-07-13T13:51:50;2.88;;;1.10;;
31848;SDS011;18414;59.352;18.152;2023-07-13T13:54:17;3.90;;;1.13;;
31848;SDS011;18414;59.352;18.152;2023-07-13T13:56:44;2.05;;;1.13;;
31848;SDS011;18414;59.352;18.152;2023-07-13T13:59:10;3.58;;;1.13;;
31848;SDS011;18414;59.352;18.152;2023-07-13T14:01:36;1.83;;;1.20;;
31848;SDS011;18414;59.352;18.152;2023-07-13T14:04:03;2.65;;;1.20;;
31848;SDS011;18414;59.352;18.152;2023-07-13T14:06:28;8.35;;;1.30;;
31848;SDS011;18414;59.352;18.152;2023-07-13T14:08:54;2.10;;;0.90;;
31848;SDS011;18414;59.352;18.152;2023-07-13T14:11:23;5.43;;;1.38;;
31848;SDS011;18414;59.352;18.152;2023-07-13T14:13:49;3.05;;;1.08;;
31848;SDS011;18414;59.352;18.152;2023-07-13T14:16:18;1.30;;;1.10;;
31848;SDS011;18414;59.352;18.152;2023-07-13T14:18:45;0.98;;;0.80;;
31848;SDS011;18414;59.352;18.152;2023-07-13T14:21:14;2.75;;;0.80;;
31848;SDS011;18414;59.352;18.152;2023-07-13T14:23:43;1.50;;;1.08;;
31848;SDS011;18414;59.352;18.152;2023-07-13T14:26:16;2.38;;;1.27;;
31848;SDS011;18414;59.352;18.152;2023-07-13T14:28:44;5.13;;;1.10;;
31848;SDS011;18414;59.352;18.152;2023-07-13T14:31:11;5.15;;;1.40;;
31848;SDS011;18414;59.352;18.152;2023-07-13T14:33:37;3.33;;;1.13;;
31848;SDS011;18414;59.352;18.152;2023-07-13T14:36:05;2.25;;;1.23;;
31848;SDS011;18414;59.352;18.152;2023-07-13T14:38:46;3.63;;;1.20;;
31848;SDS011;18414;59.352;18.152;2023-07-13T14:41:11;1.65;;;1.13;;
31848;SDS011;18414;59.352;18.152;2023-07-13T14:43:37;3.75;;;1.10;;
31848;SDS011;18414;59.352;18.152;2023-07-13T14:46:02;1.52;;;0.95;;
31848;SDS011;18414;59.352;18.152;2023-07-13T14:48:29;1.10;;;1.00;;
31848;SDS011;18414;59.352;18.152;2023-07-13T14:50:55;3.00;;;1.20;;
31848;SDS011;18414;59.352;18.152;2023-07-13T14:53:22;3.47;;;1.30;;
31848;SDS011;18414;59.352;18.152;2023-07-13T14:55:48;3.22;;;1.40;;
31848;SDS011;18414;59.352;18.152;2023-07-13T14:58:13;2.72;;;1.40;;
31848;SDS011;18414;59.352;18.152;2023-07-13T15:00:38;3.35;;;1.60;;
31848;SDS011;18414;59.352;18.152;2023-07-13T15:03:05;2.30;;;1.33;;
31848;SDS011;18414;59.352;18.152;2023-07-13T15:05:31;2.90;;;1.48;;
31848;SDS011;18414;59.352;18.152;2023-07-13T15:07:58;4.38;;;1.45;;
31848;SDS011;18414;59.352;18.152;2023-07-13T15:10:26;2.00;;;1.38;;
31848;SDS011;18414;59.352;18.152;2023-07-13T15:12:56;4.10;;;1.50;;
31848;SDS011;18414;59.352;18.152;2023-07-13T15:15:23;6.90;;;1.70;;